Time;durP1;ratioP1;P1;durP2;ratioP2;P2;SDS_P1;SDS_P2;PMS_P1;PMS_P2;Temp;Humidity;BMP_temperature;BMP_pressure;BME280_temperature;BME280_humidity;BME280_pressure;Samples;Min_cycle;Max_cycle;Signal;HPM_P1;HPM_P2
2021/11/08 00:01:15;;;;;;;;;;;18.00;68.60;;;;;;4976716;28;20433;-49
2021/11/08 00:03:46;;;;;;;;;;;18.00;68.60;;;;;;4975719;28;19930;-46
2021/11/08 00:06:16;;;;;;;;;;;18.00;68.60;;;;;;4975767;28;19980;-46
2021/11/08 00:08:43;;;;;;;;;;;18.00;68.60;;;;;;4977399;28;20370;-48
2021/11/08 00:11:10;;;;;;;;;;;18.00;68.60;;;;;;4976851;28;19973;-45
2021/11/08 00:13:37;;;;;;;;;;;18.00;68.60;;;;;;4976802;28;19926;-46
2021/11/08 00:16:27;;;;;;;;;;;18.00;68.60;;;;;;4976362;28;19926;-51
2021/11/08 00:21:22;;;;;;;;;;;18.00;68.60;;;;;;4975446;28;20440;-44
2021/11/08 00:23:50;;;;;;;;;;;18.00;68.70;;;;;;4976466;28;20355;-44
2021/11/08 00:26:17;;;;;;;;;;;18.00;68.60;;;;;;4976446;28;19930;-44
2021/11/08 00:28:44;;;;;;;;;;;18.00;68.60;;;;;;4976203;28;20445;-44
2021/11/08 00:31:11;;;;;;;;;;;18.00;68.60;;;;;;4976135;28;19969;-44
2021/11/08 00:33:39;;;;;;;;;;;18.00;68.60;;;;;;4975433;28;19933;-45
2021/11/08 00:36:07;;;;;;;;;;;18.00;68.70;;;;;;4975502;28;19926;-44
2021/11/08 00:38:34;;;;;;;;;;;18.00;68.70;;;;;;4975567;28;19965;-45
2021/11/08 00:41:02;;;;;;;;;;;18.00;68.70;;;;;;4976283;28;19988;-45
2021/11/08 00:43:29;;;;;;;;;;;18.00;68.70;;;;;;4976802;28;19926;-44
2021/11/08 00:45:56;;;;;;;;;;;18.00;68.70;;;;;;4975726;28;19930;-44
2021/11/08 00:48:28;;;;;;;;;;;18.00;68.70;;;;;;4975220;28;19973;-44
2021/11/08 00:50:55;;;;;;;;;;;18.00;68.70;;;;;;4975400;28;19930;-44
2021/11/08 00:53:22;;;;;;;;;;;18.00;68.70;;;;;;4975495;28;20433;-44
2021/11/08 00:55:50;;;;;;;;;;;18.10;68.80;;;;;;4975979;28;19977;-46
2021/11/08 01:01:20;;;;;;;;;;;18.00;68.70;;;;;;4973766;28;19926;-44
2021/11/08 01:03:48;;;;;;;;;;;18.00;68.70;;;;;;4972590;28;19942;-44
2021/11/08 01:06:16;;;;;;;;;;;18.00;68.70;;;;;;4968143;28;19988;-43
2021/11/08 01:08:43;;;;;;;;;;;18.00;68.60;;;;;;4954178;29;19927;-43
2021/11/08 01:11:11;;;;;;;;;;;18.00;68.70;;;;;;4954182;29;19961;-44
2021/11/08 01:13:39;;;;;;;;;;;18.10;68.80;;;;;;4954133;29;19926;-44
2021/11/08 01:16:07;;;;;;;;;;;18.00;68.70;;;;;;4954052;29;19958;-44
2021/11/08 01:18:34;;;;;;;;;;;18.10;68.80;;;;;;4961436;28;19957;-48
2021/11/08 01:21:02;;;;;;;;;;;18.00;68.70;;;;;;4972373;28;20360;-50
2021/11/08 01:23:29;;;;;;;;;;;18.10;68.80;;;;;;4973151;28;19926;-50
2021/11/08 01:26:04;;;;;;;;;;;18.10;68.80;;;;;;4957697;28;19934;-50
2021/11/08 01:28:36;;;;;;;;;;;18.00;68.70;;;;;;4973255;28;19981;-51
2021/11/08 01:31:06;;;;;;;;;;;18.10;68.80;;;;;;4973284;28;20341;-47
2021/11/08 01:33:34;;;;;;;;;;;18.00;68.80;;;;;;4972106;28;19926;-49
2021/11/08 01:41:08;;;;;;;;;;;18.10;68.80;;;;;;4956142;28;19926;-47
2021/11/08 01:43:35;;;;;;;;;;;18.10;68.90;;;;;;4956588;28;20363;-49
2021/11/08 01:46:04;;;;;;;;;;;18.10;68.90;;;;;;4955878;28;19978;-44
2021/11/08 01:48:31;;;;;;;;;;;18.00;68.80;;;;;;4960454;28;19926;-44
2021/11/08 01:50:58;;;;;;;;;;;18.00;68.80;;;;;;4975205;28;19930;-45
2021/11/08 01:53:26;;;;;;;;;;;18.00;68.80;;;;;;4973580;28;19969;-44
2021/11/08 01:55:53;;;;;;;;;;;18.00;68.80;;;;;;4975239;28;19973;-45
2021/11/08 01:58:22;;;;;;;;;;;18.00;68.70;;;;;;4974905;28;20456;-46
2021/11/08 02:00:49;;;;;;;;;;;18.00;68.70;;;;;;4974869;28;20374;-44
2021/11/08 02:03:17;;;;;;;;;;;18.10;68.80;;;;;;4973811;28;20386;-44
2021/11/08 02:05:45;;;;;;;;;;;18.00;68.80;;;;;;4974810;28;19931;-44
2021/11/08 02:08:12;;;;;;;;;;;18.00;68.80;;;;;;4974254;28;20337;-45
2021/11/08 02:10:39;;;;;;;;;;;18.10;68.80;;;;;;4975091;28;19926;-44
2021/11/08 02:13:07;;;;;;;;;;;18.00;68.80;;;;;;4974787;28;19977;-44
2021/11/08 02:15:37;;;;;;;;;;;18.10;68.90;;;;;;4974971;28;19930;-44
2021/11/08 02:18:09;;;;;;;;;;;18.00;68.80;;;;;;4975065;28;19961;-44
2021/11/08 02:20:37;;;;;;;;;;;18.00;68.80;;;;;;4974265;28;20429;-45
2021/11/08 02:23:06;;;;;;;;;;;18.00;68.90;;;;;;4974015;28;20350;-44
2021/11/08 02:25:35;;;;;;;;;;;18.00;68.90;;;;;;4989458;28;19926;-44
2021/11/08 02:28:03;;;;;;;;;;;18.10;68.90;;;;;;4974881;28;19927;-45
2021/11/08 02:30:33;;;;;;;;;;;18.00;69.20;;;;;;4974890;28;20325;-46
2021/11/08 02:33:00;;;;;;;;;;;18.10;68.90;;;;;;4974590;28;20397;-49
2021/11/08 02:35:28;;;;;;;;;;;18.00;69.60;;;;;;4973567;28;19926;-46
2021/11/08 02:37:59;;;;;;;;;;;18.00;68.90;;;;;;4974136;28;20017;-48
2021/11/08 02:40:28;;;;;;;;;;;18.00;68.80;;;;;;4974816;28;19980;-49
2021/11/08 02:43:00;;;;;;;;;;;18.10;69.00;;;;;;4974762;28;19981;-44
2021/11/08 02:45:28;;;;;;;;;;;18.00;68.90;;;;;;4974762;28;19930;-44
2021/11/08 02:47:55;;;;;;;;;;;18.10;69.00;;;;;;4974372;28;19933;-45
2021/11/08 02:50:25;;;;;;;;;;;18.10;69.00;;;;;;4973427;28;19926;-44
2021/11/08 02:52:52;;;;;;;;;;;18.00;68.90;;;;;;4973486;28;19930;-46
2021/11/08 02:55:23;;;;;;;;;;;18.10;69.00;;;;;;4974243;28;19926;-44
2021/11/08 02:57:50;;;;;;;;;;;18.00;68.90;;;;;;4988998;28;19973;-48
2021/11/08 03:00:18;;;;;;;;;;;18.10;69.00;;;;;;4974636;28;19981;-44
2021/11/08 03:02:47;;;;;;;;;;;18.00;68.90;;;;;;4977417;28;20441;-46
2021/11/08 03:05:15;;;;;;;;;;;18.00;68.90;;;;;;4977060;28;19926;-45
2021/11/08 03:07:42;;;;;;;;;;;18.10;69.00;;;;;;4976903;28;20393;-45
2021/11/08 03:10:13;;;;;;;;;;;18.00;68.90;;;;;;4977983;28;19926;-45
2021/11/08 03:12:45;;;;;;;;;;;18.10;69.00;;;;;;4977651;28;19933;-44
2021/11/08 03:15:16;;;;;;;;;;;18.10;69.00;;;;;;4977810;28;19930;-45
2021/11/08 03:17:46;;;;;;;;;;;18.10;69.00;;;;;;4977869;28;20345;-45
2021/11/08 03:20:16;;;;;;;;;;;18.10;69.00;;;;;;4976506;28;19981;-46
2021/11/08 03:22:53;;;;;;;;;;;18.10;69.00;;;;;;4976305;28;19926;-44
2021/11/08 03:25:37;;;;;;;;;;;18.10;69.00;;;;;;4977456;28;19926;-46
2021/11/08 03:28:07;;;;;;;;;;;18.10;69.00;;;;;;4977311;28;19926;-48
2021/11/08 03:30:38;;;;;;;;;;;18.10;69.00;;;;;;4978170;28;19927;-44
2021/11/08 03:33:07;;;;;;;;;;;18.00;68.90;;;;;;4977303;28;19933;-44
2021/11/08 03:35:34;;;;;;;;;;;18.10;69.00;;;;;;4976287;28;19926;-48
2021/11/08 03:38:03;;;;;;;;;;;18.10;69.00;;;;;;4976376;28;19930;-48
2021/11/08 03:40:32;;;;;;;;;;;18.10;69.00;;;;;;4977424;28;20282;-48
2021/11/08 03:43:01;;;;;;;;;;;18.10;69.00;;;;;;4977392;28;19926;-44
2021/11/08 03:45:29;;;;;;;;;;;18.10;69.10;;;;;;4977270;28;19930;-51
2021/11/08 03:47:57;;;;;;;;;;;18.10;69.00;;;;;;4977213;28;19930;-47
2021/11/08 03:50:25;;;;;;;;;;;18.00;68.90;;;;;;4975066;28;19926;-47
2021/11/08 03:52:52;;;;;;;;;;;18.10;69.00;;;;;;4976336;28;19930;-46
2021/11/08 03:55:20;;;;;;;;;;;18.00;69.00;;;;;;4976747;28;19926;-49
2021/11/08 03:57:48;;;;;;;;;;;18.00;69.00;;;;;;4977121;28;19926;-48
2021/11/08 04:00:16;;;;;;;;;;;18.00;68.90;;;;;;4975585;28;20441;-48
2021/11/08 04:02:43;;;;;;;;;;;18.00;68.90;;;;;;4976984;28;19927;-50
2021/11/08 04:05:11;;;;;;;;;;;18.10;69.10;;;;;;4975702;28;19958;-44
2021/11/08 04:07:38;;;;;;;;;;;18.10;69.00;;;;;;4975968;28;19930;-47
2021/11/08 04:10:07;;;;;;;;;;;18.10;69.10;;;;;;4976555;28;20317;-46
2021/11/08 04:12:35;;;;;;;;;;;18.10;69.00;;;;;;4975449;28;19976;-48
2021/11/08 04:15:06;;;;;;;;;;;18.00;68.90;;;;;;4976431;28;19926;-46
2021/11/08 04:17:33;;;;;;;;;;;18.00;68.90;;;;;;4976762;28;19926;-47
2021/11/08 04:20:02;;;;;;;;;;;18.10;69.10;;;;;;4975680;28;19936;-46
2021/11/08 04:22:29;;;;;;;;;;;18.00;69.00;;;;;;4976346;28;20406;-44
2021/11/08 04:24:57;;;;;;;;;;;18.10;69.10;;;;;;4975642;28;20038;-44
2021/11/08 04:27:24;;;;;;;;;;;18.00;69.00;;;;;;4976492;28;19973;-44
2021/11/08 04:29:52;;;;;;;;;;;18.10;69.00;;;;;;4976200;28;19926;-46
2021/11/08 04:32:19;;;;;;;;;;;18.00;68.90;;;;;;4976464;28;19926;-46
2021/11/08 04:34:51;;;;;;;;;;;18.10;69.10;;;;;;4975415;28;19930;-44
2021/11/08 04:40:19;;;;;;;;;;;18.00;69.00;;;;;;4975155;28;19926;-44
2021/11/08 04:51:14;;;;;;;;;;;18.10;69.10;;;;;;4973274;28;20421;-44
2021/11/08 04:53:52;;;;;;;;;;;18.00;69.00;;;;;;4972697;28;19950;-44
2021/11/08 05:21:37;;;;;;;;;;;18.00;69.00;;;;;;4934323;29;19930;-51
2021/11/08 05:32:11;;;;;;;;;;;18.10;69.10;;;;;;4915805;29;19938;-50
2021/11/08 05:34:38;;;;;;;;;;;18.00;69.00;;;;;;4915776;29;19986;-51
2021/11/08 05:37:08;;;;;;;;;;;18.00;69.00;;;;;;4966763;28;19949;-52
2021/11/08 05:39:36;;;;;;;;;;;18.00;69.00;;;;;;4974183;28;19926;-45
2021/11/08 05:42:04;;;;;;;;;;;18.10;69.10;;;;;;4975343;28;19933;-52
2021/11/08 05:44:33;;;;;;;;;;;18.00;69.00;;;;;;4974968;28;20006;-44
2021/11/08 05:47:00;;;;;;;;;;;18.10;69.10;;;;;;4974931;28;19973;-45
2021/11/08 05:49:27;;;;;;;;;;;18.10;69.00;;;;;;4974959;28;19934;-44
2021/11/08 05:51:54;;;;;;;;;;;18.00;68.90;;;;;;4973977;28;19930;-49
2021/11/08 05:54:21;;;;;;;;;;;18.00;69.00;;;;;;4973863;28;20401;-51
2021/11/08 06:48:43;;;;;;;;;;;18.00;69.00;;;;;;4975019;28;19976;-51
2021/11/08 06:49:31;;;;;;;;;;;18.10;68.90;;;;;;4977743;28;20302;-51
2021/11/08 06:51:58;;;;;;;;;;;18.10;68.90;;;;;;4976930;28;19926;-51
2021/11/08 06:54:27;;;;;;;;;;;18.10;68.90;;;;;;4977625;28;19941;-53
2021/11/08 06:56:59;;;;;;;;;;;18.10;68.90;;;;;;4977010;28;19926;-52
2021/11/08 06:59:27;;;;;;;;;;;18.10;68.90;;;;;;4977990;28;19934;-51
2021/11/08 07:01:55;;;;;;;;;;;18.10;68.90;;;;;;4978835;28;19933;-49
2021/11/08 07:04:23;;;;;;;;;;;18.10;68.90;;;;;;4977923;28;20368;-45
2021/11/08 07:06:50;;;;;;;;;;;18.10;68.80;;;;;;4976586;28;20448;-46
2021/11/08 07:09:18;;;;;;;;;;;18.10;68.80;;;;;;4977474;28;19926;-50
2021/11/08 07:11:45;;;;;;;;;;;18.10;68.80;;;;;;4976772;28;19933;-48
2021/11/08 07:14:12;;;;;;;;;;;18.10;68.80;;;;;;4977636;28;20336;-45
2021/11/08 07:16:40;;;;;;;;;;;18.10;68.70;;;;;;4978214;28;20009;-48
2021/11/08 07:19:08;;;;;;;;;;;18.20;68.80;;;;;;4978469;28;19976;-45
2021/11/08 07:21:35;;;;;;;;;;;18.20;68.80;;;;;;4976278;28;19930;-46
2021/11/08 07:24:02;;;;;;;;;;;18.20;68.80;;;;;;4977086;28;19926;-45
2021/11/08 07:26:29;;;;;;;;;;;18.20;68.70;;;;;;4976291;28;20397;-48
2021/11/08 07:28:56;;;;;;;;;;;18.20;68.70;;;;;;4977326;28;20297;-46
2021/11/08 07:31:23;;;;;;;;;;;18.20;68.60;;;;;;4977124;28;19933;-45
2021/11/08 07:33:50;;;;;;;;;;;18.20;68.60;;;;;;4977433;28;19988;-49
2021/11/08 07:36:17;;;;;;;;;;;18.20;68.50;;;;;;4977146;28;19933;-46
2021/11/08 07:38:44;;;;;;;;;;;18.20;68.50;;;;;;4976353;28;19926;-45
2021/11/08 07:41:12;;;;;;;;;;;18.20;68.50;;;;;;4976462;28;20010;-45
2021/11/08 07:43:39;;;;;;;;;;;18.20;68.40;;;;;;4977295;28;19926;-47
2021/11/08 07:46:07;;;;;;;;;;;18.30;68.50;;;;;;4977312;28;19953;-46
2021/11/08 07:48:39;;;;;;;;;;;18.20;68.20;;;;;;4976828;28;20012;-49
2021/11/08 07:51:07;;;;;;;;;;;18.30;68.40;;;;;;4976906;28;19932;-46
2021/11/08 07:53:34;;;;;;;;;;;18.30;68.40;;;;;;4975518;28;19926;-49
2021/11/08 07:56:01;;;;;;;;;;;18.30;68.40;;;;;;4976326;28;19973;-49
2021/11/08 07:58:28;;;;;;;;;;;18.30;68.40;;;;;;4977090;28;20337;-45
2021/11/08 08:00:55;;;;;;;;;;;18.30;68.40;;;;;;4976738;28;19933;-46
2021/11/08 08:03:23;;;;;;;;;;;18.30;69.10;;;;;;4977001;28;20126;-45
2021/11/08 08:05:50;;;;;;;;;;;18.30;68.30;;;;;;4976967;28;20279;-45
2021/11/08 08:08:17;;;;;;;;;;;18.30;68.30;;;;;;4975791;28;20046;-45
2021/11/08 08:10:45;;;;;;;;;;;18.30;68.20;;;;;;4973839;28;20564;-45
2021/11/08 08:13:12;;;;;;;;;;;18.30;68.20;;;;;;4957398;28;19930;-46
2021/11/08 08:15:40;;;;;;;;;;;18.30;68.20;;;;;;4956988;28;19927;-48
2021/11/08 08:18:07;;;;;;;;;;;18.40;68.30;;;;;;4956975;28;20354;-46
2021/11/08 08:20:34;;;;;;;;;;;18.30;68.10;;;;;;4957282;28;20072;-51
2021/11/08 08:23:01;;;;;;;;;;;18.30;68.10;;;;;;4964411;28;20378;-51
2021/11/08 08:25:29;;;;;;;;;;;18.40;68.20;;;;;;4976273;28;20310;-45
2021/11/08 08:27:58;;;;;;;;;;;18.40;68.10;;;;;;4975601;28;19930;-45
2021/11/08 08:30:26;;;;;;;;;;;18.40;68.20;;;;;;4991036;28;19934;-46
2021/11/08 08:32:54;;;;;;;;;;;18.40;68.20;;;;;;4976170;28;19930;-45
2021/11/08 08:35:22;;;;;;;;;;;18.40;68.20;;;;;;4975762;28;19926;-46
2021/11/08 08:37:49;;;;;;;;;;;18.40;68.10;;;;;;4975052;28;19945;-45
2021/11/08 08:40:16;;;;;;;;;;;18.40;68.20;;;;;;4975953;28;19934;-46
2021/11/08 08:42:43;;;;;;;;;;;18.40;68.20;;;;;;4975298;28;19984;-45
2021/11/08 08:45:10;;;;;;;;;;;18.40;68.20;;;;;;4975822;28;19933;-47
2021/11/08 08:47:42;;;;;;;;;;;18.40;68.10;;;;;;4975756;28;19927;-46
2021/11/08 08:50:09;;;;;;;;;;;18.40;68.10;;;;;;4975633;28;19927;-48
2021/11/08 08:52:36;;;;;;;;;;;18.40;68.10;;;;;;4974846;28;19977;-49
2021/11/08 08:55:05;;;;;;;;;;;18.40;68.10;;;;;;4975486;28;19925;-45
2021/11/08 08:57:31;;;;;;;;;;;18.40;68.20;;;;;;4974547;28;19934;-48
2021/11/08 09:00:00;;;;;;;;;;;18.40;68.10;;;;;;4974899;28;20026;-52
2021/11/08 09:02:47;;;;;;;;;;;18.40;68.20;;;;;;4975607;28;20394;-45
2021/11/08 09:05:14;;;;;;;;;;;18.30;68.10;;;;;;4975588;28;19954;-45
2021/11/08 09:07:42;;;;;;;;;;;18.30;68.10;;;;;;4974675;28;19959;-47
2021/11/08 09:10:09;;;;;;;;;;;18.40;68.30;;;;;;4975723;28;19948;-47
2021/11/08 09:12:38;;;;;;;;;;;18.40;68.20;;;;;;4974828;28;19933;-45
2021/11/08 09:15:05;;;;;;;;;;;18.40;68.20;;;;;;4975313;28;19926;-47
2021/11/08 09:17:32;;;;;;;;;;;18.40;68.30;;;;;;4975335;28;19942;-47
2021/11/08 09:20:06;;;;;;;;;;;18.30;68.20;;;;;;4975308;28;20390;-45
2021/11/08 09:22:34;;;;;;;;;;;18.40;68.40;;;;;;4975165;28;19926;-45
2021/11/08 09:25:01;;;;;;;;;;;18.40;68.40;;;;;;4974442;28;19981;-48
2021/11/08 09:27:28;;;;;;;;;;;18.40;68.30;;;;;;4974433;28;19926;-46
2021/11/08 09:29:55;;;;;;;;;;;18.40;68.30;;;;;;4976180;28;20470;-45
2021/11/08 09:32:22;;;;;;;;;;;18.40;68.30;;;;;;4975070;28;19926;-53
2021/11/08 09:34:50;;;;;;;;;;;18.40;68.30;;;;;;4975034;28;19926;-48
2021/11/08 09:37:18;;;;;;;;;;;18.40;68.20;;;;;;4975384;28;20341;-51
2021/11/08 09:39:46;;;;;;;;;;;18.40;68.20;;;;;;4974392;28;19981;-46
2021/11/08 09:42:15;;;;;;;;;;;18.40;68.20;;;;;;4968951;28;19926;-45
2021/11/08 09:44:43;;;;;;;;;;;18.40;68.30;;;;;;4955636;28;20363;-48
2021/11/08 09:47:10;;;;;;;;;;;18.40;68.10;;;;;;4955622;28;19980;-47
2021/11/08 09:49:39;;;;;;;;;;;18.40;68.20;;;;;;4955560;28;19970;-45
2021/11/08 09:52:06;;;;;;;;;;;18.40;68.10;;;;;;4955623;28;19926;-45
2021/11/08 09:54:40;;;;;;;;;;;18.40;68.10;;;;;;4967209;28;19932;-45
2021/11/08 09:57:07;;;;;;;;;;;18.40;68.10;;;;;;4974038;28;19930;-47
2021/11/08 09:59:35;;;;;;;;;;;18.40;68.00;;;;;;4975097;28;19934;-45
2021/11/08 10:02:09;;;;;;;;;;;18.40;68.00;;;;;;4975083;28;20008;-46
2021/11/08 10:04:36;;;;;;;;;;;18.40;68.10;;;;;;4974794;28;20385;-48
2021/11/08 10:07:04;;;;;;;;;;;18.40;68.00;;;;;;4974970;28;19933;-46
2021/11/08 10:09:31;;;;;;;;;;;18.40;68.00;;;;;;4973712;28;19980;-48
2021/11/08 10:11:59;;;;;;;;;;;18.40;67.90;;;;;;4977920;28;19926;-45
2021/11/08 10:14:26;;;;;;;;;;;18.40;67.90;;;;;;4978826;28;20370;-45
2021/11/08 10:16:58;;;;;;;;;;;18.40;67.80;;;;;;4978498;28;19984;-48
2021/11/08 10:19:26;;;;;;;;;;;18.40;67.80;;;;;;4978420;28;20025;-44
2021/11/08 10:21:55;;;;;;;;;;;18.40;67.90;;;;;;4978347;28;19930;-50
2021/11/08 10:24:25;;;;;;;;;;;18.40;67.90;;;;;;4977429;28;20311;-45
2021/11/08 10:26:54;;;;;;;;;;;18.40;67.80;;;;;;4978802;28;20349;-47
2021/11/08 10:29:23;;;;;;;;;;;18.40;67.90;;;;;;4977816;28;20008;-45
2021/11/08 10:32:06;;;;;;;;;;;18.40;67.90;;;;;;4978653;28;20362;-45
2021/11/08 10:34:34;;;;;;;;;;;18.40;67.80;;;;;;4978275;28;19957;-51
2021/11/08 10:37:06;;;;;;;;;;;18.40;67.70;;;;;;4978603;28;19934;-45
2021/11/08 10:39:38;;;;;;;;;;;18.50;67.80;;;;;;4977257;28;19930;-45
2021/11/08 10:42:07;;;;;;;;;;;18.50;67.80;;;;;;4978421;28;19930;-45
2021/11/08 10:44:34;;;;;;;;;;;18.50;67.80;;;;;;4977773;28;19926;-45
2021/11/08 10:47:05;;;;;;;;;;;18.50;67.70;;;;;;4978406;28;19973;-45
2021/11/08 10:49:37;;;;;;;;;;;18.50;67.80;;;;;;4978297;28;20317;-45
2021/11/08 10:52:06;;;;;;;;;;;18.50;67.70;;;;;;4977997;28;20393;-46
2021/11/08 10:54:37;;;;;;;;;;;18.50;67.60;;;;;;4975552;28;19977;-45
2021/11/08 10:57:06;;;;;;;;;;;18.50;67.70;;;;;;4977997;28;19958;-44
2021/11/08 10:59:35;;;;;;;;;;;18.50;67.60;;;;;;4977137;28;19984;-46
2021/11/08 11:02:05;;;;;;;;;;;18.50;67.70;;;;;;4992588;28;19930;-45
2021/11/08 11:04:37;;;;;;;;;;;18.50;67.70;;;;;;4977989;28;19932;-47
2021/11/08 11:07:05;;;;;;;;;;;18.50;67.80;;;;;;4978137;28;19930;-50
2021/11/08 11:09:37;;;;;;;;;;;18.40;67.70;;;;;;4977174;28;19926;-50
2021/11/08 11:12:04;;;;;;;;;;;18.40;67.80;;;;;;4977962;28;19930;-52
2021/11/08 11:14:38;;;;;;;;;;;18.40;67.80;;;;;;4976713;28;19973;-45
2021/11/08 11:17:10;;;;;;;;;;;18.40;67.90;;;;;;4977587;28;19926;-45
2021/11/08 11:19:38;;;;;;;;;;;18.40;68.00;;;;;;4977535;28;19926;-50
2021/11/08 11:22:08;;;;;;;;;;;18.40;68.00;;;;;;4977679;28;20440;-45
2021/11/08 11:24:49;;;;;;;;;;;18.40;68.00;;;;;;4976353;28;19973;-47
2021/11/08 11:27:27;;;;;;;;;;;18.40;68.10;;;;;;4977381;28;20003;-50
2021/11/08 11:30:09;;;;;;;;;;;18.40;68.10;;;;;;4976425;28;20373;-49
2021/11/08 11:32:36;;;;;;;;;;;18.40;68.10;;;;;;4977679;28;19931;-49
2021/11/08 11:35:15;;;;;;;;;;;18.40;68.10;;;;;;4977627;28;19937;-52
2021/11/08 11:37:51;;;;;;;;;;;18.40;68.20;;;;;;4977270;28;20444;-50
2021/11/08 11:40:18;;;;;;;;;;;18.40;68.10;;;;;;4976251;28;19930;-52
2021/11/08 11:42:47;;;;;;;;;;;18.40;68.10;;;;;;4977362;28;20334;-52
2021/11/08 11:45:14;;;;;;;;;;;18.40;68.10;;;;;;4973454;28;19927;-51
2021/11/08 11:47:41;;;;;;;;;;;18.40;68.20;;;;;;4957718;28;19931;-49
2021/11/08 11:50:09;;;;;;;;;;;18.40;68.10;;;;;;4957628;28;19927;-47
2021/11/08 11:52:41;;;;;;;;;;;18.40;68.10;;;;;;4957719;28;20290;-46
2021/11/08 11:55:09;;;;;;;;;;;18.40;68.00;;;;;;4963622;28;19926;-50
2021/11/08 11:57:36;;;;;;;;;;;18.40;68.00;;;;;;4977207;28;19926;-46
2021/11/08 12:00:04;;;;;;;;;;;18.40;68.00;;;;;;4976252;28;19930;-51
2021/11/08 12:02:31;;;;;;;;;;;18.40;67.90;;;;;;4977102;28;19926;-50
2021/11/08 12:04:59;;;;;;;;;;;18.40;68.00;;;;;;4976742;28;19926;-49
2021/11/08 12:07:26;;;;;;;;;;;18.40;67.90;;;;;;4976986;28;20289;-51
2021/11/08 12:09:53;;;;;;;;;;;18.40;68.00;;;;;;4975507;28;20005;-52
2021/11/08 12:12:24;;;;;;;;;;;18.40;68.10;;;;;;4977440;28;20412;-45
2021/11/08 12:14:56;;;;;;;;;;;18.40;68.00;;;;;;4975908;28;19926;-45
2021/11/08 12:17:23;;;;;;;;;;;18.40;68.00;;;;;;4976512;28;19926;-47
2021/11/08 12:19:51;;;;;;;;;;;18.40;68.00;;;;;;4976765;28;19981;-47
2021/11/08 12:22:20;;;;;;;;;;;18.40;68.10;;;;;;4976662;28;19933;-45
2021/11/08 12:25:01;;;;;;;;;;;18.40;68.00;;;;;;4974390;28;19973;-46
2021/11/08 12:27:33;;;;;;;;;;;18.40;68.00;;;;;;4976292;28;19926;-44
2021/11/08 12:30:00;;;;;;;;;;;18.40;67.90;;;;;;4963628;28;19941;-50
2021/11/08 12:32:29;;;;;;;;;;;18.40;68.00;;;;;;4956895;28;19926;-49
2021/11/08 12:34:58;;;;;;;;;;;18.40;68.00;;;;;;4955837;28;19927;-53
2021/11/08 12:37:35;;;;;;;;;;;18.40;68.00;;;;;;4956789;28;19926;-51
2021/11/08 12:40:03;;;;;;;;;;;18.40;67.90;;;;;;4958181;28;19931;-52
2021/11/08 12:42:39;;;;;;;;;;;18.40;67.90;;;;;;4976870;28;19929;-52
2021/11/08 12:45:12;;;;;;;;;;;18.40;67.90;;;;;;4975051;28;19950;-52
2021/11/08 12:47:57;;;;;;;;;;;18.40;67.90;;;;;;4976277;28;19985;-50
2021/11/08 12:50:32;;;;;;;;;;;18.40;67.90;;;;;;4975867;28;19957;-49
2021/11/08 12:52:59;;;;;;;;;;;18.40;68.00;;;;;;4976028;28;19973;-50
2021/11/08 12:55:41;;;;;;;;;;;18.40;68.00;;;;;;5091045;27;19923;-50
2021/11/08 12:58:08;;;;;;;;;;;18.40;68.00;;;;;;5091623;28;19925;-50
2021/11/08 13:00:40;;;;;;;;;;;18.40;67.90;;;;;;5074861;28;19935;-46
2021/11/08 13:03:15;;;;;;;;;;;18.40;68.00;;;;;;5070912;28;20384;-46
2021/11/08 13:05:46;;;;;;;;;;;18.40;68.00;;;;;;5070970;28;19983;-48
2021/11/08 13:08:17;;;;;;;;;;;18.40;68.00;;;;;;5070894;28;20011;-48
2021/11/08 13:10:55;;;;;;;;;;;18.40;68.10;;;;;;5075534;28;19993;-47
2021/11/08 13:13:22;;;;;;;;;;;18.40;68.10;;;;;;5091207;28;19924;-50
2021/11/08 13:15:49;;;;;;;;;;;18.40;68.10;;;;;;5073935;28;19975;-49
2021/11/08 13:18:18;;;;;;;;;;;18.40;68.20;;;;;;5070614;28;19935;-49
2021/11/08 13:20:46;;;;;;;;;;;18.40;68.10;;;;;;5070918;28;20272;-47
2021/11/08 13:23:16;;;;;;;;;;;18.40;68.10;;;;;;5070755;28;19925;-47
2021/11/08 13:25:44;;;;;;;;;;;18.40;68.20;;;;;;5073403;28;19974;-45
2021/11/08 13:28:13;;;;;;;;;;;18.40;68.10;;;;;;5090707;28;19924;-49
2021/11/08 13:30:48;;;;;;;;;;;18.40;68.10;;;;;;5076648;28;20012;-49
2021/11/08 13:33:16;;;;;;;;;;;18.40;68.10;;;;;;5070271;28;19968;-46
2021/11/08 13:35:45;;;;;;;;;;;18.40;68.00;;;;;;5070261;28;19975;-45
2021/11/08 13:38:13;;;;;;;;;;;18.40;68.00;;;;;;5069133;28;20423;-48
2021/11/08 13:40:45;;;;;;;;;;;18.40;67.90;;;;;;5071744;28;19978;-48
2021/11/08 13:43:20;;;;;;;;;;;18.40;68.00;;;;;;5090715;28;19924;-44
2021/11/08 13:46:07;;;;;;;;;;;18.40;68.00;;;;;;5076545;28;19925;-50
2021/11/08 13:48:43;;;;;;;;;;;18.40;67.90;;;;;;5069973;28;19925;-46
2021/11/08 13:51:29;;;;;;;;;;;18.40;68.00;;;;;;5070358;28;20339;-49
2021/11/08 13:54:01;;;;;;;;;;;18.40;68.00;;;;;;5076462;28;19924;-45
2021/11/08 13:56:31;;;;;;;;;;;18.40;68.00;;;;;;5097058;28;19931;-46
2021/11/08 13:58:59;;;;;;;;;;;18.40;68.00;;;;;;5110439;28;19931;-46
2021/11/08 14:01:30;;;;;;;;;;;18.40;68.00;;;;;;5092820;28;19970;-46
2021/11/08 14:03:58;;;;;;;;;;;18.40;68.00;;;;;;5090024;28;19967;-48
2021/11/08 14:06:26;;;;;;;;;;;18.40;67.90;;;;;;5079597;28;19924;-49
2021/11/08 14:08:53;;;;;;;;;;;18.40;68.00;;;;;;5058898;28;19924;-49
2021/11/08 14:11:29;;;;;;;;;;;18.40;67.90;;;;;;5080501;28;19924;-46
2021/11/08 14:14:00;;;;;;;;;;;18.40;68.00;;;;;;5096540;28;19928;-45
2021/11/08 14:16:27;;;;;;;;;;;18.40;68.00;;;;;;5062202;28;19955;-48
2021/11/08 14:18:54;;;;;;;;;;;18.40;68.00;;;;;;5076582;28;19967;-46
2021/11/08 14:21:22;;;;;;;;;;;18.40;68.00;;;;;;5076162;28;19924;-46
2021/11/08 14:23:55;;;;;;;;;;;18.40;68.10;;;;;;5076097;28;19963;-49
2021/11/08 14:26:24;;;;;;;;;;;18.40;68.00;;;;;;5079498;28;19928;-45
2021/11/08 14:28:51;;;;;;;;;;;18.40;68.10;;;;;;5096615;28;20007;-44
2021/11/08 14:31:23;;;;;;;;;;;18.40;68.10;;;;;;5082843;28;19931;-47
2021/11/08 14:33:53;;;;;;;;;;;18.40;68.10;;;;;;5076195;28;20272;-46
2021/11/08 14:36:21;;;;;;;;;;;18.40;68.10;;;;;;5076249;28;19963;-47
2021/11/08 14:38:51;;;;;;;;;;;18.40;68.20;;;;;;5076195;28;20326;-44
2021/11/08 14:41:18;;;;;;;;;;;18.40;68.10;;;;;;5077251;28;19925;-44
2021/11/08 14:43:55;;;;;;;;;;;18.40;68.20;;;;;;5095941;28;19977;-48
2021/11/08 14:46:22;;;;;;;;;;;18.30;68.10;;;;;;5083728;28;19931;-44
2021/11/08 14:48:49;;;;;;;;;;;18.30;68.10;;;;;;5075684;28;19955;-44
2021/11/08 14:51:24;;;;;;;;;;;18.30;68.10;;;;;;5075635;28;20414;-43
2021/11/08 14:53:56;;;;;;;;;;;18.30;68.10;;;;;;5075392;28;20011;-44
2021/11/08 14:56:24;;;;;;;;;;;18.30;68.10;;;;;;5075935;28;20394;-44
2021/11/08 14:58:55;;;;;;;;;;;18.30;68.20;;;;;;5095969;28;19973;-44
2021/11/08 15:01:23;;;;;;;;;;;18.30;68.20;;;;;;5084703;28;19971;-45
2021/11/08 15:04:21;;;;;;;;;;;18.30;68.20;;;;;;5075394;28;19924;-43
2021/11/08 15:06:58;;;;;;;;;;;18.30;68.20;;;;;;5063023;28;19932;-44
2021/11/08 15:09:25;;;;;;;;;;;18.30;68.40;;;;;;5075583;28;19925;-44
2021/11/08 15:11:53;;;;;;;;;;;18.30;68.40;;;;;;5078425;28;19924;-45
2021/11/08 15:14:21;;;;;;;;;;;18.30;68.40;;;;;;5095230;28;19931;-51
2021/11/08 15:16:52;;;;;;;;;;;18.30;68.40;;;;;;5081214;28;20280;-50
2021/11/08 15:19:20;;;;;;;;;;;18.30;68.40;;;;;;5075214;28;19925;-50
2021/11/08 15:21:49;;;;;;;;;;;18.30;68.50;;;;;;5074975;28;19978;-47
2021/11/08 15:24:16;;;;;;;;;;;18.30;68.50;;;;;;5057380;28;19928;-51
2021/11/08 15:26:48;;;;;;;;;;;18.30;68.50;;;;;;5075784;28;19970;-48
2021/11/08 15:29:22;;;;;;;;;;;18.30;68.60;;;;;;5095318;28;19927;-51
2021/11/08 15:31:49;;;;;;;;;;;18.20;68.60;;;;;;5082783;28;19928;-46
2021/11/08 15:34:17;;;;;;;;;;;18.20;68.50;;;;;;5074553;28;19978;-51
2021/11/08 15:36:50;;;;;;;;;;;18.20;68.60;;;;;;5074702;28;19932;-49
2021/11/08 15:39:27;;;;;;;;;;;18.20;68.60;;;;;;5074851;28;19925;-48
2021/11/08 15:41:56;;;;;;;;;;;18.20;68.70;;;;;;5075503;28;19924;-50
2021/11/08 15:44:24;;;;;;;;;;;18.20;68.60;;;;;;5077052;28;19947;-50
2021/11/08 15:46:51;;;;;;;;;;;18.20;68.70;;;;;;5084061;28;19925;-45
2021/11/08 15:49:18;;;;;;;;;;;18.20;68.70;;;;;;5074410;28;20380;-52
2021/11/08 15:51:46;;;;;;;;;;;18.20;68.70;;;;;;5074697;28;19924;-50
2021/11/08 15:54:17;;;;;;;;;;;18.20;68.80;;;;;;5073993;28;19931;-44
2021/11/08 15:56:45;;;;;;;;;;;18.20;69.50;;;;;;5074253;28;19970;-48
2021/11/08 15:59:13;;;;;;;;;;;18.20;68.80;;;;;;5074710;28;19924;-44
2021/11/08 16:01:42;;;;;;;;;;;18.20;68.80;;;;;;5086677;28;19928;-48
2021/11/08 16:04:10;;;;;;;;;;;18.20;68.90;;;;;;5074467;28;20269;-48
2021/11/08 16:06:37;;;;;;;;;;;18.20;68.90;;;;;;5074453;28;19950;-45
2021/11/08 16:09:05;;;;;;;;;;;18.20;68.90;;;;;;5074413;28;20293;-48
2021/11/08 16:11:36;;;;;;;;;;;18.20;68.90;;;;;;5074037;28;19925;-50
2021/11/08 16:14:04;;;;;;;;;;;18.10;68.90;;;;;;5089605;28;19924;-44